Terminal Aerodrome Forecast
Issued by NWS Raleigh/Durham, NC

Home | Current Version | Previous Version | Text Only | Print | Product List | Glossary On
Versions: 1 2 3 4 5 6 7 8 9 10 11 12 13 14 15 16 17 18 19 20 21 22 23 24 25 26 27 28 29 30 31 32 33 34 35 36
000
FTUS42 KRAH 251725
TAFRDU
TAF
KRDU 251725Z 2518/2618 23015G28KT P6SM BKN050
     FM251930 23018G28KT P6SM VCSH SCT030 BKN050
      TEMPO 2520/2522 3SM -TSRA BKN030CB
     FM252300 30017G27KT P6SM SCT050
     FM260000 30010G17KT P6SM FEW060
     FM260300 30007KT P6SM SKC=

USA.gov is the U.S. government's official web portal to all federal, state and local government web resources and services.